createdAt,value
2022-08-04T00:00:42.610Z,88.30
2022-08-04T00:03:27.376Z,88.50
2022-08-04T00:06:22.576Z,89.00
2022-08-04T00:08:55.583Z,88.80
2022-08-04T00:11:25.209Z,88.80
2022-08-04T00:14:05.414Z,89.00
2022-08-04T00:16:40.924Z,89.10
2022-08-04T00:19:16.530Z,89.60
2022-08-04T00:21:54.027Z,89.50
2022-08-04T00:24:23.032Z,90.00
2022-08-04T00:26:54.013Z,89.80
2022-08-04T00:29:23.065Z,90.00
2022-08-04T00:31:54.744Z,90.20
2022-08-04T00:34:27.007Z,90.40
2022-08-04T00:36:55.241Z,90.80
2022-08-04T00:39:22.983Z,90.80
2022-08-04T00:41:56.326Z,91.00
2022-08-04T00:44:31.123Z,91.00
2022-08-04T00:47:05.017Z,91.20
2022-08-04T00:49:40.161Z,91.80
2022-08-04T00:52:32.054Z,92.10
2022-08-04T00:55:18.373Z,92.70
2022-08-04T00:58:18.490Z,93.10
2022-08-04T01:01:14.961Z,93.40
2022-08-04T01:03:56.692Z,93.50
2022-08-04T01:07:20.271Z,93.70
2022-08-04T01:10:01.261Z,93.80
2022-08-04T01:12:50.839Z,93.90
2022-08-04T01:15:17.710Z,94.00
2022-08-04T01:17:56.848Z,94.00
2022-08-04T01:20:26.571Z,94.20
2022-08-04T01:22:56.361Z,94.40
2022-08-04T01:25:29.099Z,94.60
2022-08-04T01:28:13.937Z,95.00
2022-08-04T01:30:45.543Z,95.10
2022-08-04T01:33:17.293Z,95.70
2022-08-04T01:35:50.993Z,96.10
2022-08-04T01:38:32.812Z,96.30
2022-08-04T01:41:13.902Z,96.90
2022-08-04T01:43:45.327Z,98.30
2022-08-04T01:46:14.542Z,98.70
2022-08-04T01:48:45.394Z,98.90
2022-08-04T01:51:12.476Z,99.90
2022-08-04T01:53:44.033Z,99.90
2022-08-04T01:56:12.622Z,99.90
2022-08-04T01:58:41.259Z,99.90
2022-08-04T02:01:10.620Z,99.90
2022-08-04T02:04:21.026Z,99.90
2022-08-04T02:06:57.429Z,99.90
2022-08-04T02:09:34.136Z,99.90
2022-08-04T02:12:42.560Z,99.90
2022-08-04T02:15:09.592Z,99.90
2022-08-04T02:17:56.666Z,99.90
2022-08-04T02:20:38.026Z,99.90
2022-08-04T02:23:15.469Z,99.90
2022-08-04T02:25:47.590Z,99.90
2022-08-04T02:28:23.565Z,99.90
2022-08-04T02:31:29.290Z,99.90
2022-08-04T02:34:13.870Z,99.90
2022-08-04T02:36:41.376Z,99.90
2022-08-04T02:39:12.331Z,99.90
2022-08-04T02:41:40.462Z,99.90
2022-08-04T02:44:09.331Z,99.90
2022-08-04T02:46:38.422Z,99.90
2022-08-04T02:49:08.143Z,99.90
2022-08-04T02:51:44.756Z,99.90
2022-08-04T02:54:12.073Z,99.90
2022-08-04T02:56:40.739Z,99.90
2022-08-04T02:59:10.682Z,99.90
2022-08-04T03:01:37.927Z,99.90
2022-08-04T03:04:45.334Z,99.90
2022-08-04T03:07:50.038Z,99.90
2022-08-04T03:10:22.959Z,99.90
2022-08-04T03:13:05.703Z,99.90
2022-08-04T03:16:00.096Z,99.90
2022-08-04T03:18:48.366Z,99.90
2022-08-04T03:21:56.660Z,99.90
2022-08-04T03:24:40.547Z,99.90
2022-08-04T03:27:11.792Z,99.90
2022-08-04T03:30:05.321Z,99.90
2022-08-04T03:32:50.892Z,99.90
2022-08-04T03:35:54.710Z,99.90
2022-08-04T03:38:38.426Z,99.90
2022-08-04T03:41:51.667Z,99.90
2022-08-04T03:44:22.926Z,99.90
2022-08-04T03:47:16.822Z,99.90
2022-08-04T03:49:56.997Z,99.90
2022-08-04T03:55:29.690Z,99.90
2022-08-04T03:58:08.916Z,99.90
2022-08-04T04:00:50.539Z,99.90
2022-08-04T04:03:38.964Z,99.90
2022-08-04T04:06:29.275Z,99.90
2022-08-04T04:09:03.832Z,99.90
2022-08-04T04:11:57.345Z,99.90
2022-08-04T04:14:50.197Z,99.90
2022-08-04T04:17:46.698Z,99.90
2022-08-04T04:20:31.495Z,99.90
2022-08-04T04:23:04.329Z,99.90
2022-08-04T04:25:55.737Z,99.90
2022-08-04T04:28:47.331Z,99.90
2022-08-04T04:31:33.630Z,99.90
2022-08-04T04:34:29.650Z,99.90
2022-08-04T04:37:49.011Z,99.90
2022-08-04T04:40:40.968Z,99.90
2022-08-04T04:43:51.379Z,99.90
2022-08-04T04:46:32.317Z,99.90
2022-08-04T04:49:09.077Z,99.90
2022-08-04T04:51:56.621Z,99.90
2022-08-04T04:54:39.618Z,99.90
2022-08-04T04:57:23.199Z,99.90
2022-08-04T05:00:11.179Z,99.90
2022-08-04T05:03:09.426Z,99.90
2022-08-04T05:05:56.872Z,99.90
2022-08-04T05:08:44.380Z,99.90
2022-08-04T05:11:40.136Z,99.90
2022-08-04T05:14:37.447Z,99.90
2022-08-04T05:17:28.457Z,99.90
2022-08-04T05:20:10.260Z,99.90
2022-08-04T05:22:54.503Z,99.90
2022-08-04T05:25:59.117Z,99.90
2022-08-04T05:28:48.930Z,99.90
2022-08-04T05:31:36.790Z,99.90
2022-08-04T05:34:15.216Z,99.90
2022-08-04T05:36:54.114Z,99.90
2022-08-04T05:39:24.549Z,99.90
2022-08-04T05:41:55.821Z,99.90
2022-08-04T05:44:33.494Z,99.90
2022-08-04T05:47:02.832Z,99.90
2022-08-04T05:49:30.320Z,99.90
2022-08-04T05:52:03.064Z,99.90
2022-08-04T05:54:35.517Z,99.90
2022-08-04T05:57:08.013Z,99.90
2022-08-04T05:59:38.972Z,99.90
2022-08-04T06:02:08.044Z,99.90
2022-08-04T06:04:40.155Z,99.90
2022-08-04T06:07:08.014Z,99.90
2022-08-04T06:12:06.901Z,99.90
2022-08-04T06:14:39.612Z,99.90
2022-08-04T06:18:33.048Z,99.90
2022-08-04T06:20:19.483Z,99.90
2022-08-04T06:22:46.330Z,99.90
2022-08-04T06:25:20.614Z,99.90
2022-08-04T06:27:49.369Z,99.90
2022-08-04T06:30:19.305Z,99.90
2022-08-04T06:32:49.364Z,99.90
2022-08-04T06:35:18.157Z,99.90
2022-08-04T06:37:47.474Z,99.60
2022-08-04T06:40:29.559Z,99.90
2022-08-04T06:43:05.033Z,99.90
2022-08-04T06:45:35.042Z,99.60
2022-08-04T06:48:05.005Z,99.60
2022-08-04T06:51:30.472Z,99.90
2022-08-04T06:53:21.868Z,99.90
2022-08-04T06:55:50.463Z,99.50
2022-08-04T06:58:19.617Z,98.60
2022-08-04T07:00:48.524Z,98.40
2022-08-04T07:03:19.982Z,98.50
2022-08-04T07:05:48.425Z,98.40
2022-08-04T07:08:16.574Z,98.30
2022-08-04T07:10:45.625Z,98.10
2022-08-04T07:13:13.291Z,98.20
2022-08-04T07:15:45.129Z,97.90
2022-08-04T07:18:12.223Z,97.20
2022-08-04T07:20:47.276Z,97.30
2022-08-04T07:23:19.906Z,96.20
2022-08-04T07:26:12.450Z,95.60
2022-08-04T07:28:40.771Z,95.80
2022-08-04T07:31:11.550Z,92.50
2022-08-04T07:34:16.921Z,89.70
2022-08-04T07:36:50.802Z,87.90
2022-08-04T07:39:28.537Z,85.50
2022-08-04T07:41:57.802Z,81.60
2022-08-04T07:44:25.416Z,83.70
2022-08-04T07:46:52.475Z,81.20
2022-08-04T07:49:56.987Z,79.70
2022-08-04T07:52:08.242Z,76.80
2022-08-04T07:54:35.672Z,76.40
2022-08-04T07:57:03.318Z,74.10
2022-08-04T07:59:30.361Z,74.70
2022-08-04T08:02:00.812Z,72.30
2022-08-04T08:04:28.885Z,71.10
2022-08-04T08:06:57.941Z,69.40
2022-08-04T08:09:25.133Z,70.10
2022-08-04T08:12:35.764Z,69.40
2022-08-04T08:14:41.334Z,70.40
2022-08-04T08:17:08.479Z,68.00
2022-08-04T08:19:35.889Z,68.30
2022-08-04T08:22:03.903Z,68.10
2022-08-04T08:24:34.228Z,64.40
2022-08-04T08:27:04.661Z,64.90
2022-08-04T08:29:34.022Z,64.50
2022-08-04T08:32:07.718Z,64.50
2022-08-04T08:34:35.890Z,67.30
2022-08-04T08:37:42.130Z,68.30
2022-08-04T08:40:39.211Z,69.90
2022-08-04T08:44:00.491Z,68.20
2022-08-04T08:47:02.473Z,67.10
2022-08-04T08:53:01.244Z,68.70
2022-08-04T08:55:37.148Z,68.80
2022-08-04T08:58:15.861Z,67.10
2022-08-04T09:01:04.676Z,66.60
2022-08-04T09:04:04.999Z,66.10
2022-08-04T09:06:46.447Z,68.80
2022-08-04T09:09:21.980Z,69.10
2022-08-04T09:11:55.850Z,67.60
2022-08-04T09:14:33.233Z,70.00
2022-08-04T09:17:06.785Z,67.00
2022-08-04T09:19:50.138Z,67.10
2022-08-04T09:22:22.392Z,67.10
2022-08-04T09:25:13.750Z,67.40
2022-08-04T09:27:55.382Z,67.20
2022-08-04T09:30:47.317Z,67.70
2022-08-04T09:33:44.490Z,68.20
2022-08-04T09:36:32.538Z,65.10
2022-08-04T09:38:59.414Z,66.50
2022-08-04T09:41:49.361Z,66.80
2022-08-04T09:44:52.682Z,66.30
2022-08-04T09:48:02.899Z,66.80
2022-08-04T09:50:41.224Z,65.30
2022-08-04T09:53:13.907Z,64.00
2022-08-04T09:55:54.296Z,63.20
2022-08-04T09:58:47.954Z,64.50
2022-08-04T10:01:23.670Z,64.10
2022-08-04T10:03:59.074Z,63.90
2022-08-04T10:07:02.526Z,64.00
2022-08-04T10:09:38.058Z,61.70
2022-08-04T10:12:25.871Z,62.70
2022-08-04T10:15:13.887Z,62.00
2022-08-04T10:17:52.548Z,63.40
2022-08-04T10:20:45.944Z,64.60
2022-08-04T10:23:26.612Z,61.40
2022-08-04T10:26:07.356Z,62.40
2022-08-04T10:28:49.636Z,61.30
2022-08-04T10:31:24.729Z,61.80
2022-08-04T10:34:14.243Z,61.20
2022-08-04T10:37:16.178Z,59.70
2022-08-04T10:41:02.626Z,58.80
2022-08-04T10:43:35.804Z,58.60
2022-08-04T10:46:07.827Z,59.30
2022-08-04T10:48:45.746Z,59.80
2022-08-04T10:51:31.039Z,59.60
2022-08-04T10:54:33.421Z,58.10
2022-08-04T10:57:04.790Z,57.50
2022-08-04T11:00:06.078Z,56.60
2022-08-04T11:02:51.529Z,57.50
2022-08-04T11:05:44.073Z,57.40
2022-08-04T11:08:29.664Z,57.30
2022-08-04T11:11:05.780Z,54.70
2022-08-04T11:13:53.102Z,57.70
2022-08-04T11:16:25.168Z,54.60
2022-08-04T11:19:10.167Z,53.30
2022-08-04T11:21:43.494Z,52.80
2022-08-04T11:24:32.673Z,52.70
2022-08-04T11:27:03.829Z,53.50
2022-08-04T11:29:42.404Z,52.20
2022-08-04T11:32:18.748Z,52.70
2022-08-04T11:34:53.163Z,52.70
2022-08-04T11:37:27.154Z,53.20
2022-08-04T11:40:04.175Z,52.10
2022-08-04T11:42:39.721Z,50.80
2022-08-04T11:45:08.146Z,51.10
2022-08-04T11:50:05.369Z,52.70
2022-08-04T11:52:34.763Z,52.60
2022-08-04T11:55:09.566Z,54.10
2022-08-04T12:00:10.659Z,55.10
2022-08-04T12:02:48.020Z,53.10
2022-08-04T12:05:32.402Z,52.00
2022-08-04T12:08:26.806Z,51.80
2022-08-04T12:11:12.298Z,53.50
2022-08-04T12:13:46.769Z,52.60
2022-08-04T12:16:32.612Z,51.40
2022-08-04T12:19:12.333Z,50.90
2022-08-04T12:21:53.047Z,54.10
2022-08-04T12:24:58.977Z,54.00
2022-08-04T12:27:33.631Z,53.30
2022-08-04T12:30:58.022Z,52.80
2022-08-04T12:33:03.720Z,53.00
2022-08-04T12:36:04.338Z,53.40
2022-08-04T12:38:33.485Z,54.30
2022-08-04T12:41:04.905Z,54.30
2022-08-04T12:43:47.169Z,54.90
2022-08-04T12:46:22.724Z,54.10
2022-08-04T12:48:50.740Z,54.60
2022-08-04T12:52:06.343Z,53.40
2022-08-04T12:54:08.478Z,52.70
2022-08-04T12:56:36.239Z,52.90
2022-08-04T12:59:12.469Z,53.50
2022-08-04T13:02:09.628Z,53.30
2022-08-04T13:04:34.468Z,56.40
2022-08-04T13:07:12.839Z,56.10
2022-08-04T13:09:41.412Z,54.40
2022-08-04T13:12:19.322Z,55.00
2022-08-04T13:14:49.414Z,54.30
2022-08-04T13:19:55.018Z,53.50
2022-08-04T13:22:28.914Z,56.00
2022-08-04T13:27:48.812Z,54.50
2022-08-04T13:30:25.253Z,54.70
2022-08-04T13:30:25.706Z,54.40
2022-08-04T13:32:59.157Z,54.70
2022-08-04T13:35:55.783Z,52.60
2022-08-04T13:38:17.637Z,51.90
2022-08-04T13:40:45.800Z,53.60
2022-08-04T13:44:15.520Z,54.10
2022-08-04T13:46:27.169Z,55.70
2022-08-04T13:49:25.871Z,53.20
2022-08-04T13:51:57.851Z,54.40
2022-08-04T13:54:42.801Z,53.30
2022-08-04T13:57:29.625Z,53.40
2022-08-04T14:00:04.958Z,54.60
2022-08-04T14:02:39.466Z,54.10
2022-08-04T14:05:18.530Z,54.10
2022-08-04T14:08:01.326Z,54.20
2022-08-04T14:12:56.649Z,54.10
2022-08-04T14:16:02.992Z,53.50
2022-08-04T14:18:27.538Z,52.60
2022-08-04T14:21:06.554Z,54.60
2022-08-04T14:23:48.067Z,54.30
2022-08-04T14:26:20.401Z,56.20
2022-08-04T14:29:01.243Z,55.70
2022-08-04T14:34:10.042Z,54.90
2022-08-04T14:37:04.639Z,55.30
2022-08-04T14:39:39.757Z,55.20
2022-08-04T14:42:09.107Z,55.10
2022-08-04T14:44:56.897Z,56.10
2022-08-04T14:47:51.944Z,55.10
2022-08-04T14:50:20.841Z,55.50
2022-08-04T14:52:47.944Z,54.70
2022-08-04T14:55:22.032Z,57.00
2022-08-04T14:58:34.398Z,56.80
2022-08-04T15:00:37.774Z,56.60
2022-08-04T15:03:08.804Z,57.60
2022-08-04T15:05:59.877Z,55.70
2022-08-04T15:08:31.060Z,57.00
2022-08-04T15:11:03.453Z,55.80
2022-08-04T15:13:32.898Z,57.00
2022-08-04T15:16:06.995Z,57.70
2022-08-04T15:18:36.835Z,57.60
2022-08-04T15:21:04.961Z,57.60
2022-08-04T15:23:38.986Z,58.00
2022-08-04T15:26:10.532Z,57.40
2022-08-04T15:28:41.186Z,57.10
2022-08-04T15:32:04.255Z,56.40
2022-08-04T15:36:57.020Z,57.20
2022-08-04T15:39:51.596Z,56.20
2022-08-04T15:42:32.325Z,56.00
2022-08-04T15:45:23.770Z,57.40
2022-08-04T15:48:13.653Z,58.30
2022-08-04T15:50:55.785Z,58.70
2022-08-04T15:53:22.931Z,59.30
2022-08-04T15:55:50.126Z,59.70
2022-08-04T15:58:20.945Z,59.20
2022-08-04T16:00:50.894Z,60.20
2022-08-04T16:03:58.246Z,60.40
2022-08-04T16:06:22.843Z,61.00
2022-08-04T16:11:31.463Z,60.10
2022-08-04T16:13:59.106Z,60.70
2022-08-04T16:16:28.935Z,61.80
2022-08-04T16:19:04.550Z,60.30
2022-08-04T16:21:34.106Z,60.30
2022-08-04T16:24:35.460Z,60.70
2022-08-04T16:27:12.275Z,60.80
2022-08-04T16:29:44.895Z,61.70
2022-08-04T16:32:14.875Z,62.10
2022-08-04T16:34:49.777Z,60.80
2022-08-04T16:37:19.334Z,61.10
2022-08-04T16:39:49.624Z,61.40
2022-08-04T16:42:33.080Z,61.20
2022-08-04T16:45:02.743Z,61.60
2022-08-04T16:47:48.392Z,61.90
2022-08-04T16:50:15.987Z,62.80
2022-08-04T16:52:45.544Z,63.10
2022-08-04T16:55:31.028Z,62.80
2022-08-04T16:58:01.654Z,63.90
2022-08-04T17:00:34.893Z,64.70
2022-08-04T17:03:11.315Z,64.80
2022-08-04T17:05:40.438Z,64.90
2022-08-04T17:10:56.368Z,65.40
2022-08-04T17:14:02.022Z,66.70
2022-08-04T17:18:54.199Z,66.90
2022-08-04T17:21:27.335Z,67.30
2022-08-04T17:24:14.753Z,66.50
2022-08-04T17:26:53.974Z,67.90
2022-08-04T17:29:43.953Z,68.00
2022-08-04T17:32:21.531Z,68.20
2022-08-04T17:34:53.487Z,68.70
2022-08-04T17:37:52.942Z,68.70
2022-08-04T17:40:18.401Z,68.60
2022-08-04T17:44:05.281Z,69.30
2022-08-04T17:46:28.576Z,68.70
2022-08-04T17:48:58.998Z,69.40
2022-08-04T17:52:05.005Z,69.50
2022-08-04T17:54:39.881Z,69.60
2022-08-04T17:57:20.637Z,70.30
2022-08-04T18:02:32.346Z,71.30
2022-08-04T18:05:07.198Z,70.60
2022-08-04T18:08:38.747Z,71.30
2022-08-04T18:10:55.811Z,71.70
2022-08-04T18:13:27.225Z,71.90
2022-08-04T18:16:05.561Z,71.30
2022-08-04T18:18:33.187Z,72.00
2022-08-04T18:21:03.216Z,72.70
2022-08-04T18:23:50.833Z,72.60
2022-08-04T18:26:18.157Z,73.30
2022-08-04T18:28:50.455Z,73.60
2022-08-04T18:31:17.380Z,74.00
2022-08-04T18:33:44.257Z,74.20
2022-08-04T18:36:32.795Z,74.80
2022-08-04T18:39:13.834Z,75.00
2022-08-04T18:42:01.570Z,75.30
2022-08-04T18:44:49.368Z,74.80
2022-08-04T18:47:23.225Z,75.70
2022-08-04T18:51:11.323Z,75.70
2022-08-04T18:52:45.669Z,75.40
2022-08-04T19:05:37.828Z,76.30
2022-08-04T19:10:59.723Z,76.60
2022-08-04T19:13:29.755Z,76.20
2022-08-04T19:16:03.145Z,76.90
2022-08-04T19:18:32.326Z,77.10
2022-08-04T19:21:05.142Z,77.00
2022-08-04T19:26:28.113Z,77.40
2022-08-04T19:31:40.136Z,77.70
2022-08-04T19:34:09.491Z,77.80
2022-08-04T19:36:36.482Z,78.10
2022-08-04T19:39:09.229Z,78.30
2022-08-04T19:47:00.364Z,79.20
2022-08-04T19:50:04.858Z,79.10
2022-08-04T19:52:14.884Z,78.50
2022-08-04T19:55:10.087Z,79.10
2022-08-04T19:57:46.077Z,79.30
2022-08-04T20:00:14.571Z,79.60
2022-08-04T20:05:10.347Z,79.90
2022-08-04T20:07:38.363Z,80.20
2022-08-04T20:10:07.253Z,80.10
2022-08-04T20:12:34.704Z,80.30
2022-08-04T20:15:10.949Z,81.30
2022-08-04T20:18:07.912Z,81.80
2022-08-04T20:20:27.216Z,82.20
2022-08-04T20:25:36.598Z,82.30
2022-08-04T20:28:09.342Z,82.60
2022-08-04T20:30:53.138Z,83.10
2022-08-04T20:33:21.714Z,82.90
2022-08-04T20:38:34.338Z,83.20
2022-08-04T20:41:01.963Z,84.30
2022-08-04T20:43:31.371Z,84.60
2022-08-04T20:45:59.319Z,85.30
2022-08-04T20:48:33.884Z,86.40
2022-08-04T20:56:19.393Z,86.60
2022-08-04T20:58:59.711Z,86.80
2022-08-04T21:01:29.783Z,87.00
2022-08-04T21:04:27.403Z,87.40
2022-08-04T21:09:37.132Z,86.70
2022-08-04T21:12:07.115Z,87.30
2022-08-04T21:14:34.854Z,87.90
2022-08-04T21:19:36.741Z,88.00
2022-08-04T21:22:10.258Z,87.60
2022-08-04T21:24:38.179Z,88.20
2022-08-04T21:32:07.735Z,89.00
2022-08-04T21:34:39.696Z,89.50
2022-08-04T21:37:09.365Z,88.90
2022-08-04T21:39:50.287Z,89.20
2022-08-04T21:42:29.109Z,89.40
2022-08-04T21:44:58.133Z,89.40
2022-08-04T21:47:25.266Z,89.20
2022-08-04T21:52:24.409Z,90.20
2022-08-04T21:54:54.456Z,89.60
2022-08-04T21:57:25.240Z,89.40
2022-08-04T21:59:52.821Z,89.30
2022-08-04T22:02:19.792Z,90.00
2022-08-04T22:04:48.403Z,90.00
2022-08-04T22:09:56.233Z,90.00
2022-08-04T22:12:29.923Z,90.40
2022-08-04T22:14:59.807Z,90.40
2022-08-04T22:17:35.168Z,90.70
2022-08-04T22:25:02.090Z,91.10
2022-08-04T22:27:58.114Z,91.20
2022-08-04T22:30:29.144Z,91.20
2022-08-04T22:33:00.464Z,91.30
2022-08-04T22:35:43.928Z,91.40
2022-08-04T22:38:24.081Z,91.60
2022-08-04T22:41:01.718Z,91.80
2022-08-04T22:43:31.709Z,91.90
2022-08-04T22:46:01.787Z,92.00
2022-08-04T22:48:32.063Z,92.00
2022-08-04T22:53:27.422Z,92.70
2022-08-04T22:56:07.711Z,92.40
2022-08-04T22:58:45.426Z,93.10
2022-08-04T23:01:17.822Z,92.90
2022-08-04T23:03:50.936Z,93.00
2022-08-04T23:06:25.401Z,93.00
2022-08-04T23:08:52.971Z,93.10
2022-08-04T23:11:20.836Z,93.30
2022-08-04T23:16:17.027Z,93.50
2022-08-04T23:18:48.314Z,93.60
2022-08-04T23:21:17.119Z,93.70
2022-08-04T23:28:58.461Z,94.70
2022-08-04T23:31:38.918Z,94.70
2022-08-04T23:36:35.864Z,95.60
2022-08-04T23:39:05.707Z,95.70
2022-08-04T23:41:54.473Z,95.70
2022-08-04T23:46:58.736Z,96.00
2022-08-04T23:49:43.832Z,96.10
2022-08-04T23:52:27.977Z,96.10
2022-08-04T23:55:00.827Z,96.20
2022-08-04T23:58:05.161Z,96.00
